createdAt,value
2022-12-01T00:01:31.279Z,3.17
2022-12-01T00:06:28.482Z,3.22
2022-12-01T00:11:27.411Z,2.65
2022-12-01T00:16:25.160Z,2.73
2022-12-01T00:21:23.953Z,3.03
2022-12-01T00:26:23.811Z,2.78
2022-12-01T00:31:22.137Z,2.77
2022-12-01T00:36:21.225Z,2.85
2022-12-01T00:41:18.305Z,3.02
2022-12-01T00:46:16.637Z,2.96
2022-12-01T00:51:13.685Z,2.72
2022-12-01T00:56:11.654Z,2.81
2022-12-01T01:01:08.884Z,2.74
2022-12-01T01:06:07.644Z,2.91
2022-12-01T01:11:05.888Z,2.79
2022-12-01T01:16:06.622Z,2.73
2022-12-01T01:21:05.858Z,2.72
2022-12-01T01:26:04.514Z,3.00
2022-12-01T01:31:06.473Z,2.86
2022-12-01T01:36:05.290Z,2.98
2022-12-01T01:41:02.589Z,2.86
2022-12-01T01:45:59.848Z,2.57
2022-12-01T01:50:57.638Z,2.93
2022-12-01T01:55:55.435Z,2.62
2022-12-01T02:00:52.263Z,2.80
2022-12-01T02:05:49.707Z,2.75
2022-12-01T02:11:06.411Z,2.73
2022-12-01T02:16:12.703Z,2.32
2022-12-01T02:21:27.862Z,2.38
2022-12-01T02:26:39.233Z,2.50
2022-12-01T02:31:41.761Z,2.49
2022-12-01T02:36:45.528Z,2.65
2022-12-01T02:41:50.622Z,2.45
2022-12-01T02:46:53.330Z,2.31
2022-12-01T02:51:52.983Z,2.48
2022-12-01T02:56:52.715Z,2.03
2022-12-01T03:02:01.778Z,2.32
2022-12-01T03:07:07.375Z,2.05
2022-12-01T03:12:15.524Z,2.55
2022-12-01T03:17:20.892Z,2.48
2022-12-01T03:22:27.489Z,1.91
2022-12-01T03:27:28.390Z,2.46
2022-12-01T03:32:30.855Z,2.04
2022-12-01T03:37:33.724Z,2.40
2022-12-01T03:42:36.301Z,2.49
2022-12-01T03:47:37.199Z,2.31
2022-12-01T03:52:41.974Z,1.95
2022-12-01T03:57:49.908Z,2.34
2022-12-01T04:02:48.353Z,2.44
2022-12-01T04:07:45.277Z,2.26
2022-12-01T04:12:42.372Z,2.56
2022-12-01T04:17:42.888Z,2.55
2022-12-01T04:22:41.078Z,1.99
2022-12-01T04:27:41.906Z,2.34
2022-12-01T04:32:40.663Z,1.96
2022-12-01T04:37:37.995Z,2.32
2022-12-01T04:42:36.171Z,2.13
2022-12-01T04:47:33.560Z,1.85
2022-12-01T04:52:35.003Z,2.26
2022-12-01T04:57:32.356Z,2.39
2022-12-01T05:02:30.555Z,2.39
2022-12-01T05:07:32.321Z,2.07
2022-12-01T05:12:32.275Z,1.75
2022-12-01T05:17:36.788Z,1.84
2022-12-01T05:23:03.962Z,1.75
2022-12-01T05:27:51.820Z,1.77
2022-12-01T05:32:53.082Z,1.95
2022-12-01T05:37:50.417Z,1.62
2022-12-01T05:42:47.610Z,1.72
2022-12-01T05:47:45.064Z,1.90
2022-12-01T05:52:43.441Z,1.86
2022-12-01T05:57:40.783Z,1.67
2022-12-01T06:02:41.835Z,1.15
2022-12-01T06:07:39.827Z,1.38
2022-12-01T06:12:38.070Z,1.52
2022-12-01T06:17:39.929Z,1.11
2022-12-01T06:22:41.952Z,1.51
2022-12-01T06:27:40.023Z,1.40
2022-12-01T06:32:37.073Z,1.49
2022-12-01T06:37:34.447Z,1.35
2022-12-01T06:42:46.341Z,1.18
2022-12-01T06:47:43.420Z,1.16
2022-12-01T06:52:43.073Z,1.59
2022-12-01T06:57:40.102Z,1.09
2022-12-01T07:02:39.184Z,1.44
2022-12-01T07:07:37.299Z,1.00
2022-12-01T07:12:37.131Z,1.55
2022-12-01T07:17:35.622Z,0.62
2022-12-01T07:22:33.553Z,1.27
2022-12-01T07:27:32.623Z,1.28
2022-12-01T07:32:29.682Z,1.47
2022-12-01T07:37:26.838Z,1.51
2022-12-01T07:42:24.712Z,1.26
2022-12-01T07:47:21.798Z,1.35
2022-12-01T07:52:18.800Z,1.01
2022-12-01T07:57:17.533Z,1.44
2022-12-01T08:02:15.215Z,1.15
2022-12-01T08:07:12.206Z,1.26
2022-12-01T08:12:09.784Z,1.33
2022-12-01T08:17:06.891Z,0.57
2022-12-01T08:22:04.818Z,1.15
2022-12-01T08:27:01.732Z,1.54
2022-12-01T08:31:58.987Z,1.15
2022-12-01T08:36:56.187Z,1.61
2022-12-01T08:41:53.890Z,1.66
2022-12-01T08:46:50.753Z,1.71
2022-12-01T08:51:48.056Z,1.54
2022-12-01T08:56:46.662Z,1.07
2022-12-01T09:01:52.452Z,1.75
2022-12-01T09:07:09.624Z,1.15
2022-12-01T09:12:10.427Z,1.11
2022-12-01T09:17:12.172Z,1.53
2022-12-01T09:22:15.202Z,1.38
2022-12-01T09:27:12.648Z,1.67
2022-12-01T09:32:25.760Z,1.57
2022-12-01T09:37:30.155Z,1.22
2022-12-01T09:42:35.686Z,1.66
2022-12-01T09:47:36.701Z,1.50
2022-12-01T09:52:41.940Z,1.06
2022-12-01T09:57:43.734Z,1.28
2022-12-01T10:02:47.436Z,1.30
2022-12-01T10:07:48.093Z,1.65
2022-12-01T10:12:48.027Z,1.53
2022-12-01T10:17:58.090Z,1.76
2022-12-01T10:23:35.509Z,1.62
2022-12-01T10:29:07.660Z,1.67
2022-12-01T10:34:12.251Z,0.97
2022-12-01T10:39:19.023Z,1.28
2022-12-01T10:44:19.120Z,1.12
2022-12-01T10:49:19.211Z,1.17
2022-12-01T10:54:16.845Z,1.68
2022-12-01T10:59:32.729Z,1.59
2022-12-01T11:04:44.689Z,1.36
2022-12-01T11:09:44.943Z,1.56
2022-12-01T11:14:44.886Z,1.62
2022-12-01T11:19:47.498Z,1.52
2022-12-01T11:25:00.921Z,1.82
2022-12-01T11:30:04.268Z,1.65
2022-12-01T11:35:08.988Z,1.77
2022-12-01T11:40:22.548Z,1.11
2022-12-01T11:45:27.699Z,1.80
2022-12-01T11:50:28.352Z,1.61
2022-12-01T11:55:28.579Z,1.26
2022-12-01T12:00:29.081Z,2.00
2022-12-01T12:05:48.425Z,1.52
2022-12-01T12:10:56.811Z,1.37
2022-12-01T12:16:07.455Z,1.76
2022-12-01T12:21:21.213Z,1.83
2022-12-01T12:26:31.203Z,2.02
2022-12-01T12:31:44.949Z,2.13
2022-12-01T12:37:00.579Z,1.51
2022-12-01T12:42:12.078Z,2.13
2022-12-01T12:47:28.421Z,1.69
2022-12-01T12:52:31.398Z,1.96
2022-12-01T12:57:38.505Z,1.86
2022-12-01T13:02:42.374Z,2.01
2022-12-01T13:07:47.304Z,1.68
2022-12-01T13:12:59.278Z,2.12
2022-12-01T13:18:03.330Z,2.06
2022-12-01T13:23:03.182Z,1.72
2022-12-01T13:28:03.755Z,1.99
2022-12-01T13:33:08.400Z,1.97
2022-12-01T13:38:26.059Z,2.05
2022-12-01T13:43:25.442Z,2.12
2022-12-01T13:48:29.150Z,1.83
2022-12-01T13:53:30.176Z,1.76
2022-12-01T13:58:45.561Z,2.07
2022-12-01T14:03:53.896Z,1.92
2022-12-01T14:08:58.629Z,1.81
2022-12-01T14:14:00.258Z,1.29
2022-12-01T14:18:59.350Z,1.69
2022-12-01T14:24:02.061Z,1.38
2022-12-01T14:29:28.053Z,2.09
2022-12-01T14:34:26.525Z,2.12
2022-12-01T14:39:30.116Z,2.12
2022-12-01T14:44:36.144Z,2.11
2022-12-01T14:49:38.104Z,2.13
2022-12-01T14:54:44.165Z,1.98
2022-12-01T14:59:41.455Z,1.74
2022-12-01T15:05:09.546Z,1.94
2022-12-01T15:10:16.912Z,1.68
2022-12-01T15:15:24.220Z,1.84
2022-12-01T15:20:29.295Z,1.47
2022-12-01T15:25:33.364Z,1.68
2022-12-01T15:30:35.786Z,1.85
2022-12-01T15:35:33.652Z,1.52
2022-12-01T15:45:56.688Z,1.68
2022-12-01T15:51:06.367Z,1.74
2022-12-01T15:56:09.870Z,1.87
2022-12-01T16:01:13.196Z,1.68
2022-12-01T16:06:12.966Z,1.99
2022-12-01T16:11:13.273Z,1.98
2022-12-01T16:16:34.430Z,1.25
2022-12-01T16:21:44.519Z,1.86
2022-12-01T16:26:49.192Z,1.95
2022-12-01T16:32:12.800Z,1.86
2022-12-01T16:37:03.689Z,1.78
2022-12-01T16:42:06.265Z,1.91
2022-12-01T16:47:13.343Z,1.50
2022-12-01T16:57:29.785Z,1.75
2022-12-01T17:02:26.986Z,1.35
2022-12-01T17:07:24.555Z,1.28
2022-12-01T17:12:24.705Z,1.59
2022-12-01T17:17:22.557Z,1.18
2022-12-01T17:22:20.726Z,0.92
2022-12-01T17:27:19.487Z,1.59
2022-12-01T17:32:16.599Z,1.69
2022-12-01T17:37:20.545Z,1.87
2022-12-01T17:42:18.144Z,1.75
2022-12-01T17:47:16.163Z,1.69
2022-12-01T17:52:15.304Z,1.53
2022-12-01T17:57:13.249Z,1.41
2022-12-01T18:02:12.667Z,1.91
2022-12-01T18:07:15.198Z,1.94
2022-12-01T18:12:13.190Z,1.58
2022-12-01T18:17:21.421Z,1.39
2022-12-01T18:22:22.226Z,1.52
2022-12-01T18:27:20.388Z,1.95
2022-12-01T18:32:19.596Z,1.91
2022-12-01T18:37:19.539Z,1.33
2022-12-01T18:42:22.465Z,1.93
2022-12-01T18:47:20.205Z,1.27
2022-12-01T18:52:29.777Z,1.93
2022-12-01T18:57:27.808Z,1.67
2022-12-01T19:02:25.025Z,1.81
2022-12-01T19:07:28.176Z,1.20
2022-12-01T19:12:27.823Z,1.93
2022-12-01T19:18:09.325Z,1.54
2022-12-01T19:23:13.000Z,1.32
2022-12-01T19:28:10.877Z,1.68
2022-12-01T19:33:08.152Z,1.55
2022-12-01T19:38:07.951Z,1.75
2022-12-01T19:43:05.387Z,1.93
2022-12-01T19:48:32.207Z,1.91
2022-12-01T19:53:37.051Z,1.81
2022-12-01T19:58:34.393Z,1.16
2022-12-01T20:03:32.418Z,1.48
2022-12-01T20:08:32.839Z,1.34
2022-12-01T20:13:32.953Z,1.83
2022-12-01T20:18:32.200Z,1.67
2022-12-01T20:23:29.463Z,1.27
2022-12-01T20:28:27.181Z,1.12
2022-12-01T20:33:24.692Z,1.56
2022-12-01T20:38:27.819Z,1.92
2022-12-01T20:43:25.474Z,1.96
2022-12-01T20:48:25.073Z,1.40
2022-12-01T20:53:23.639Z,1.94
2022-12-01T20:58:20.948Z,1.82
2022-12-01T21:03:18.142Z,1.26
2022-12-01T21:08:15.465Z,1.69
2022-12-01T21:13:37.783Z,1.58
2022-12-01T21:18:49.580Z,1.27
2022-12-01T21:23:47.104Z,1.59
2022-12-01T21:28:45.902Z,1.92
2022-12-01T21:33:42.913Z,1.96
2022-12-01T21:38:41.875Z,1.35
2022-12-01T21:43:39.230Z,1.80
2022-12-01T21:48:37.566Z,1.98
2022-12-01T21:53:38.282Z,1.76
2022-12-01T21:58:37.625Z,1.60
2022-12-01T22:03:40.201Z,1.51
2022-12-01T22:08:40.314Z,1.93
2022-12-01T22:13:43.057Z,1.63
2022-12-01T22:18:43.188Z,2.04
2022-12-01T22:23:40.284Z,2.07
2022-12-01T22:28:37.281Z,1.74
2022-12-01T22:33:34.609Z,1.83
2022-12-01T22:38:37.373Z,1.30
2022-12-01T22:43:48.552Z,1.35
2022-12-01T22:48:49.643Z,1.66
2022-12-01T22:53:48.317Z,1.65
2022-12-01T22:58:45.923Z,1.68
2022-12-01T23:03:43.376Z,1.76
2022-12-01T23:08:40.706Z,1.50
2022-12-01T23:13:38.938Z,1.63
2022-12-01T23:18:36.008Z,1.47
2022-12-01T23:23:36.424Z,1.71
2022-12-01T23:28:35.903Z,1.95
2022-12-01T23:33:34.536Z,1.53
2022-12-01T23:38:36.286Z,2.11
2022-12-01T23:43:35.343Z,2.09
2022-12-01T23:48:36.338Z,1.94
2022-12-01T23:53:33.698Z,1.71
2022-12-01T23:58:30.757Z,2.13
